PWSweather.com
Personal Weather Stations
Station Observations
PICKERING
North Yorkshire, PickeringGB

North YorkshirePickeringGB

Lat: 54.2494, Lon: -0.7725

Elevation: 192

Station Type: Oregon Scientific WMR100

http://www.yorkshirewalker.co.uk/weather/

High Low Average
Temperature 80.6°F27.0°C 51.3°F10.7°C 63.1°F17.3°C
Dew Point 64.4°F18.0°C 44.6°F7.0°C 54.2°F12.3°C
Winds 8.2 mph 13.2 kmh Calm Calm 3.0 mph SE4.8 kmh SE
Wind Gusts 12.1 mph19.5 kmh -- 4.0 mph6.4 kmh
Humidity 82% 54% 72%
Pressure 29.74 in1007.1 mb 29.50 in999.0 mb -
Precipitation 0.35 in8.9 mm - -
Hour Temp Dew Point Humidity Winds Wind Gusts Pressure Precip Precip Rate Daily Precip Total
12:00 AM 53.6°F12.0°C 46.4°F8.0°C 75% 2.1 mph NE3.4 kmh NE 2.9 mph4.7 kmh 29.74 in1007.1 mb 0.00 in0.0 mm 0.00 in0.0 mm 0.00 in0.0 mm
12:05 AM 53.6°F12.0°C 46.4°F8.0°C 75% 2.9 mph NE4.7 kmh NE 3.4 mph5.5 kmh 29.74 in1007.1 mb 0.00 in0.0 mm 0.00 in0.0 mm 0.00 in0.0 mm
12:10 AM 53.4°F11.9°C 46.4°F8.0°C 75% 2.8 mph NNE4.5 kmh NNE 3.4 mph5.5 kmh 29.74 in1007.1 mb 0.00 in0.0 mm 0.00 in0.0 mm 0.00 in0.0 mm
12:15 AM 53.2°F11.8°C 44.6°F7.0°C 74% 2.5 mph NE4.0 kmh NE 3.1 mph5.0 kmh 29.74 in1007.1 mb 0.00 in0.0 mm 0.00 in0.0 mm 0.00 in0.0 mm
12:20 AM 53.1°F11.7°C 44.6°F7.0°C 74% 2.2 mph NNE3.5 kmh NNE 3.1 mph5.0 kmh 29.74 in1007.1 mb 0.00 in0.0 mm 0.00 in0.0 mm 0.00 in0.0 mm
12:25 AM 52.9°F11.6°C 46.4°F8.0°C 75% 2.0 mph NE3.2 kmh NE 2.5 mph4.0 kmh 29.71 in1006.1 mb 0.00 in0.0 mm 0.00 in0.0 mm 0.00 in0.0 mm
12:30 AM 52.9°F11.6°C 46.4°F8.0°C 75% 2.8 mph NE4.5 kmh NE 4.0 mph6.4 kmh 29.71 in1006.1 mb 0.00 in0.0 mm 0.00 in0.0 mm 0.00 in0.0 mm
12:35 AM 52.9°F11.6°C 46.4°F8.0°C 75% 3.5 mph NNE5.6 kmh NNE 4.0 mph6.4 kmh 29.71 in1006.1 mb 0.00 in0.0 mm 0.00 in0.0 mm 0.00 in0.0 mm
12:40 AM 52.9°F11.6°C 46.4°F8.0°C 75% 3.4 mph NNE5.5 kmh NNE 4.0 mph6.4 kmh 29.71 in1006.1 mb 0.00 in0.0 mm 0.00 in0.0 mm 0.00 in0.0 mm
12:45 AM 52.7°F11.5°C 46.4°F8.0°C 75% 3.2 mph NNE5.1 kmh NNE 3.6 mph5.8 kmh 29.71 in1006.1 mb 0.00 in0.0 mm 0.00 in0.0 mm 0.00 in0.0 mm
12:50 AM 52.5°F11.4°C 44.6°F7.0°C 75% 2.5 mph NNE4.0 kmh NNE 3.6 mph5.8 kmh 29.71 in1006.1 mb 0.00 in0.0 mm 0.00 in0.0 mm 0.00 in0.0 mm
12:55 AM 52.3°F11.3°C 44.6°F7.0°C 75% 1.5 mph N2.4 kmh N 2.5 mph4.0 kmh 29.71 in1006.1 mb 0.00 in0.0 mm 0.00 in0.0 mm 0.00 in0.0 mm
01:00 AM 52.3°F11.3°C 44.6°F7.0°C 75% 1.9 mph NNE3.1 kmh NNE 3.1 mph5.0 kmh 29.71 in1006.1 mb 0.00 in0.0 mm 0.00 in0.0 mm 0.00 in0.0 mm
01:05 AM 52.3°F11.3°C 44.6°F7.0°C 75% 2.6 mph NE4.2 kmh NE 3.1 mph5.0 kmh 29.71 in1006.1 mb 0.00 in0.0 mm 0.00 in0.0 mm 0.00 in0.0 mm
01:10 AM 52.3°F11.3°C 44.6°F7.0°C 75% 2.5 mph NE4.0 kmh NE 3.6 mph5.8 kmh 29.71 in1006.1 mb 0.00 in0.0 mm 0.00 in0.0 mm 0.00 in0.0 mm
01:15 AM 52.2°F11.2°C 44.6°F7.0°C 75% 2.4 mph NE3.9 kmh NE 3.6 mph5.8 kmh 29.71 in1006.1 mb 0.00 in0.0 mm 0.00 in0.0 mm 0.00 in0.0 mm
01:20 AM 52.2°F11.2°C 44.6°F7.0°C 75% 2.5 mph NE4.0 kmh NE 3.4 mph5.5 kmh 29.71 in1006.1 mb 0.00 in0.0 mm 0.00 in0.0 mm 0.00 in0.0 mm
01:25 AM 52.0°F11.1°C 44.6°F7.0°C 75% 3.0 mph NE4.8 kmh NE 3.6 mph5.8 kmh 29.68 in1005.1 mb 0.00 in0.0 mm 0.00 in0.0 mm 0.00 in0.0 mm
01:30 AM 52.0°F11.1°C 44.6°F7.0°C 75% 3.3 mph NE5.3 kmh NE 4.3 mph6.9 kmh 29.68 in1005.1 mb 0.00 in0.0 mm 0.00 in0.0 mm 0.00 in0.0 mm
01:35 AM 52.0°F11.1°C 44.6°F7.0°C 75% 3.0 mph NE4.8 kmh NE 4.3 mph6.9 kmh 29.68 in1005.1 mb 0.00 in0.0 mm 0.00 in0.0 mm 0.00 in0.0 mm
01:40 AM 52.0°F11.1°C 44.6°F7.0°C 75% 2.5 mph NE4.0 kmh NE 3.6 mph5.8 kmh 29.68 in1005.1 mb 0.00 in0.0 mm 0.00 in0.0 mm 0.00 in0.0 mm
01:45 AM 52.0°F11.1°C 44.6°F7.0°C 75% 1.9 mph NE3.1 kmh NE 3.1 mph5.0 kmh 29.68 in1005.1 mb 0.00 in0.0 mm 0.00 in0.0 mm 0.00 in0.0 mm
01:50 AM 51.6°F10.9°C 44.6°F7.0°C 75% 1.7 mph NE2.7 kmh NE 2.7 mph4.3 kmh 29.68 in1005.1 mb 0.00 in0.0 mm 0.00 in0.0 mm 0.00 in0.0 mm
01:55 AM 51.4°F10.8°C 44.6°F7.0°C 75% 2.1 mph NE3.4 kmh NE 2.9 mph4.7 kmh 29.68 in1005.1 mb 0.00 in0.0 mm 0.00 in0.0 mm 0.00 in0.0 mm
02:00 AM 51.4°F10.8°C 44.6°F7.0°C 76% 2.2 mph NNE3.5 kmh NNE 2.9 mph4.7 kmh 29.68 in1005.1 mb 0.00 in0.0 mm 0.00 in0.0 mm 0.00 in0.0 mm
02:05 AM 51.3°F10.7°C 44.6°F7.0°C 75% 1.5 mph NNE2.4 kmh NNE 2.9 mph4.7 kmh 29.68 in1005.1 mb 0.00 in0.0 mm 0.00 in0.0 mm 0.00 in0.0 mm
02:10 AM 51.3°F10.7°C 44.6°F7.0°C 76% 1.4 mph NNE2.3 kmh NNE 2.9 mph4.7 kmh 29.68 in1005.1 mb 0.00 in0.0 mm 0.00 in0.0 mm 0.00 in0.0 mm
02:15 AM 51.4°F10.8°C 44.6°F7.0°C 76% 1.8 mph NNE2.9 kmh NNE 2.9 mph4.7 kmh 29.68 in1005.1 mb 0.00 in0.0 mm 0.00 in0.0 mm 0.00 in0.0 mm
02:20 AM 51.4°F10.8°C 44.6°F7.0°C 76% 1.9 mph NE3.1 kmh NE 2.9 mph4.7 kmh 29.68 in1005.1 mb 0.00 in0.0 mm 0.00 in0.0 mm 0.00 in0.0 mm
02:25 AM 51.4°F10.8°C 44.6°F7.0°C 76% 2.0 mph NNE3.2 kmh NNE 2.9 mph4.7 kmh 29.68 in1005.1 mb 0.00 in0.0 mm 0.00 in0.0 mm 0.00 in0.0 mm
02:30 AM 51.4°F10.8°C 44.6°F7.0°C 76% 2.2 mph NNE3.5 kmh NNE 3.6 mph5.8 kmh 29.68 in1005.1 mb 0.00 in0.0 mm 0.00 in0.0 mm 0.00 in0.0 mm
02:35 AM 51.4°F10.8°C 44.6°F7.0°C 76% 2.6 mph NE4.2 kmh NE 4.0 mph6.4 kmh 29.68 in1005.1 mb 0.00 in0.0 mm 0.00 in0.0 mm 0.00 in0.0 mm
02:40 AM 51.4°F10.8°C 44.6°F7.0°C 76% 3.2 mph NE5.1 kmh NE 4.0 mph6.4 kmh 29.65 in1004.1 mb 0.00 in0.0 mm 0.00 in0.0 mm 0.00 in0.0 mm
02:45 AM 51.4°F10.8°C 44.6°F7.0°C 76% 3.7 mph NE6.0 kmh NE 4.0 mph6.4 kmh 29.65 in1004.1 mb 0.00 in0.0 mm 0.00 in0.0 mm 0.00 in0.0 mm
02:50 AM 51.6°F10.9°C 44.6°F7.0°C 77% 3.2 mph NE5.1 kmh NE 4.0 mph6.4 kmh 29.65 in1004.1 mb 0.00 in0.0 mm 0.00 in0.0 mm 0.00 in0.0 mm
02:55 AM 51.8°F11.0°C 44.6°F7.0°C 77% 2.8 mph NE4.5 kmh NE 3.4 mph5.5 kmh 29.65 in1004.1 mb 0.00 in0.0 mm 0.00 in0.0 mm 0.00 in0.0 mm
03:00 AM 51.8°F11.0°C 44.6°F7.0°C 77% 2.9 mph NNE4.7 kmh NNE 3.6 mph5.8 kmh 29.65 in1004.1 mb 0.00 in0.0 mm 0.00 in0.0 mm 0.00 in0.0 mm
03:05 AM 51.8°F11.0°C 44.6°F7.0°C 77% 3.0 mph NNE4.8 kmh NNE 3.6 mph5.8 kmh 29.65 in1004.1 mb 0.00 in0.0 mm 0.00 in0.0 mm 0.00 in0.0 mm
03:10 AM 51.8°F11.0°C 44.6°F7.0°C 77% 2.6 mph NE4.2 kmh NE 3.1 mph5.0 kmh 29.65 in1004.1 mb 0.00 in0.0 mm 0.00 in0.0 mm 0.00 in0.0 mm
03:15 AM 52.0°F11.1°C 44.6°F7.0°C 77% 2.4 mph NE3.9 kmh NE 3.4 mph5.5 kmh 29.65 in1004.1 mb 0.00 in0.0 mm 0.00 in0.0 mm 0.00 in0.0 mm
03:20 AM 52.0°F11.1°C 44.6°F7.0°C 77% 2.7 mph NE4.3 kmh NE 3.4 mph5.5 kmh 29.65 in1004.1 mb 0.00 in0.0 mm 0.00 in0.0 mm 0.00 in0.0 mm
03:25 AM 52.0°F11.1°C 44.6°F7.0°C 77% 2.5 mph NE4.0 kmh NE 3.4 mph5.5 kmh 29.65 in1004.1 mb 0.00 in0.0 mm 0.00 in0.0 mm 0.00 in0.0 mm
03:30 AM 52.0°F11.1°C 44.6°F7.0°C 77% 2.3 mph NE3.7 kmh NE 3.4 mph5.5 kmh 29.65 in1004.1 mb 0.00 in0.0 mm 0.00 in0.0 mm 0.00 in0.0 mm
03:35 AM 51.8°F11.0°C 44.6°F7.0°C 77% 2.5 mph NE4.0 kmh NE 3.4 mph5.5 kmh 29.65 in1004.1 mb 0.00 in0.0 mm 0.00 in0.0 mm 0.00 in0.0 mm
03:40 AM 51.8°F11.0°C 44.6°F7.0°C 77% 2.6 mph NE4.2 kmh NE 2.9 mph4.7 kmh 29.65 in1004.1 mb 0.00 in0.0 mm 0.00 in0.0 mm 0.00 in0.0 mm
03:45 AM 52.0°F11.1°C 44.6°F7.0°C 77% 2.3 mph NNE3.7 kmh NNE 2.9 mph4.7 kmh 29.65 in1004.1 mb 0.00 in0.0 mm 0.00 in0.0 mm 0.00 in0.0 mm
03:50 AM 51.8°F11.0°C 44.6°F7.0°C 77% 1.8 mph NNE2.9 kmh NNE 2.5 mph4.0 kmh 29.65 in1004.1 mb 0.00 in0.0 mm 0.00 in0.0 mm 0.00 in0.0 mm
03:55 AM 51.8°F11.0°C 44.6°F7.0°C 77% 1.4 mph NE2.3 kmh NE 2.7 mph4.3 kmh 29.65 in1004.1 mb 0.00 in0.0 mm 0.00 in0.0 mm 0.00 in0.0 mm
04:00 AM 52.0°F11.1°C 44.6°F7.0°C 78% 2.7 mph NE4.3 kmh NE 4.3 mph6.9 kmh 29.65 in1004.1 mb 0.00 in0.0 mm 0.00 in0.0 mm 0.00 in0.0 mm
04:05 AM 52.0°F11.1°C 44.6°F7.0°C 78% 3.3 mph NE5.3 kmh NE 4.3 mph6.9 kmh 29.65 in1004.1 mb 0.00 in0.0 mm 0.00 in0.0 mm 0.00 in0.0 mm
04:10 AM 52.0°F11.1°C 44.6°F7.0°C 78% 2.4 mph NE3.9 kmh NE 3.1 mph5.0 kmh 29.62 in1003.0 mb 0.00 in0.0 mm 0.00 in0.0 mm 0.00 in0.0 mm
04:15 AM 52.2°F11.2°C 46.4°F8.0°C 78% 2.5 mph NE4.0 kmh NE 3.1 mph5.0 kmh 29.62 in1003.0 mb 0.00 in0.0 mm 0.00 in0.0 mm 0.00 in0.0 mm
04:20 AM 52.2°F11.2°C 46.4°F8.0°C 78% 2.7 mph NE4.3 kmh NE 3.4 mph5.5 kmh 29.62 in1003.0 mb 0.00 in0.0 mm 0.00 in0.0 mm 0.00 in0.0 mm
04:25 AM 52.3°F11.3°C 46.4°F8.0°C 78% 2.6 mph NNE4.2 kmh NNE 3.4 mph5.5 kmh 29.62 in1003.0 mb 0.00 in0.0 mm 0.00 in0.0 mm 0.00 in0.0 mm
04:30 AM 52.3°F11.3°C 46.4°F8.0°C 78% 2.2 mph NNE3.5 kmh NNE 3.1 mph5.0 kmh 29.62 in1003.0 mb 0.00 in0.0 mm 0.00 in0.0 mm 0.00 in0.0 mm
04:35 AM 52.3°F11.3°C 46.4°F8.0°C 78% 1.7 mph NNE2.7 kmh NNE 2.7 mph4.3 kmh 29.62 in1003.0 mb 0.00 in0.0 mm 0.00 in0.0 mm 0.00 in0.0 mm
04:40 AM 52.5°F11.4°C 46.4°F8.0°C 78% 0.9 mph NE1.4 kmh NE 2.0 mph3.2 kmh 29.62 in1003.0 mb 0.00 in0.0 mm 0.00 in0.0 mm 0.00 in0.0 mm
04:45 AM 52.5°F11.4°C 46.4°F8.0°C 78% 0.8 mph NE1.3 kmh NE 2.5 mph4.0 kmh 29.62 in1003.0 mb 0.00 in0.0 mm 0.00 in0.0 mm 0.00 in0.0 mm
04:50 AM 52.5°F11.4°C 46.4°F8.0°C 79% 1.8 mph NE2.9 kmh NE 3.1 mph5.0 kmh 29.62 in1003.0 mb 0.00 in0.0 mm 0.00 in0.0 mm 0.00 in0.0 mm
04:55 AM 52.7°F11.5°C 46.4°F8.0°C 79% 2.9 mph NE4.7 kmh NE 3.8 mph6.1 kmh 29.62 in1003.0 mb 0.00 in0.0 mm 0.00 in0.0 mm 0.00 in0.0 mm
05:00 AM 52.7°F11.5°C 46.4°F8.0°C 79% 3.3 mph NE5.3 kmh NE 4.0 mph6.4 kmh 29.62 in1003.0 mb 0.00 in0.0 mm 0.00 in0.0 mm 0.00 in0.0 mm
05:05 AM 52.9°F11.6°C 46.4°F8.0°C 79% 2.9 mph NE4.7 kmh NE 4.0 mph6.4 kmh 29.62 in1003.0 mb 0.00 in0.0 mm 0.00 in0.0 mm 0.00 in0.0 mm
05:10 AM 53.1°F11.7°C 46.4°F8.0°C 79% 2.8 mph NE4.5 kmh NE 3.6 mph5.8 kmh 29.62 in1003.0 mb 0.00 in0.0 mm 0.00 in0.0 mm 0.00 in0.0 mm
05:15 AM 52.9°F11.6°C 46.4°F8.0°C 79% 3.0 mph NE4.8 kmh NE 3.6 mph5.8 kmh 29.62 in1003.0 mb 0.00 in0.0 mm 0.00 in0.0 mm 0.00 in0.0 mm
05:20 AM 52.9°F11.6°C 46.4°F8.0°C 79% 2.9 mph NE4.7 kmh NE 3.8 mph6.1 kmh 29.62 in1003.0 mb 0.00 in0.0 mm 0.00 in0.0 mm 0.00 in0.0 mm
05:25 AM 52.9°F11.6°C 46.4°F8.0°C 79% 2.3 mph NE3.7 kmh NE 3.8 mph6.1 kmh 29.62 in1003.0 mb 0.00 in0.0 mm 0.00 in0.0 mm 0.00 in0.0 mm
05:30 AM 52.9°F11.6°C 46.4°F8.0°C 79% 1.7 mph ENE2.7 kmh ENE 2.7 mph4.3 kmh 29.62 in1003.0 mb 0.00 in0.0 mm 0.00 in0.0 mm 0.00 in0.0 mm
05:35 AM 52.9°F11.6°C 46.4°F8.0°C 79% 1.5 mph E2.4 kmh E 3.1 mph5.0 kmh 29.62 in1003.0 mb 0.00 in0.0 mm 0.00 in0.0 mm 0.00 in0.0 mm
05:40 AM 53.1°F11.7°C 46.4°F8.0°C 79% 0.8 mph E1.3 kmh E 3.1 mph5.0 kmh 29.62 in1003.0 mb 0.00 in0.0 mm 0.00 in0.0 mm 0.00 in0.0 mm
05:45 AM 53.4°F11.9°C 48.2°F9.0°C 79% 1.0 mph E1.6 kmh E 4.0 mph6.4 kmh 29.62 in1003.0 mb 0.00 in0.0 mm 0.00 in0.0 mm 0.00 in0.0 mm
05:50 AM 53.6°F12.0°C 48.2°F9.0°C 80% 2.2 mph E3.5 kmh E 4.3 mph6.9 kmh 29.62 in1003.0 mb 0.00 in0.0 mm 0.00 in0.0 mm 0.00 in0.0 mm
05:55 AM 54.3°F12.4°C 48.2°F9.0°C 80% 2.9 mph SE4.7 kmh SE 4.3 mph6.9 kmh 29.62 in1003.0 mb 0.00 in0.0 mm 0.00 in0.0 mm 0.00 in0.0 mm
06:00 AM 55.2°F12.9°C 50.0°F10.0°C 80% 2.8 mph SE4.5 kmh SE 3.8 mph6.1 kmh 29.62 in1003.0 mb 0.00 in0.0 mm 0.00 in0.0 mm 0.00 in0.0 mm
06:05 AM 55.2°F12.9°C 50.0°F10.0°C 81% 1.7 mph ESE2.7 kmh ESE 3.8 mph6.1 kmh 29.62 in1003.0 mb 0.00 in0.0 mm 0.00 in0.0 mm 0.00 in0.0 mm
06:10 AM 55.0°F12.8°C 50.0°F10.0°C 81% 0.6 mph ESE1.0 kmh ESE 3.1 mph5.0 kmh 29.62 in1003.0 mb 0.00 in0.0 mm 0.00 in0.0 mm 0.00 in0.0 mm
06:15 AM 54.7°F12.6°C 50.0°F10.0°C 81% 0.3 mph ESE0.5 kmh ESE 3.1 mph5.0 kmh 29.62 in1003.0 mb 0.00 in0.0 mm 0.00 in0.0 mm 0.00 in0.0 mm
06:20 AM 54.5°F12.5°C 50.0°F10.0°C 81% 0.3 mph ESE0.5 kmh ESE 2.5 mph4.0 kmh 29.62 in1003.0 mb 0.00 in0.0 mm 0.00 in0.0 mm 0.00 in0.0 mm
06:25 AM 54.3°F12.4°C 48.2°F9.0°C 80% 0.3 mph E0.5 kmh E 2.5 mph4.0 kmh 29.62 in1003.0 mb 0.00 in0.0 mm 0.00 in0.0 mm 0.00 in0.0 mm
06:30 AM 54.1°F12.3°C 48.2°F9.0°C 80% 0.1 mph NNE0.2 kmh NNE 0.9 mph1.4 kmh 29.62 in1003.0 mb 0.00 in0.0 mm 0.00 in0.0 mm 0.00 in0.0 mm
06:35 AM 54.1°F12.3°C 48.2°F9.0°C 80% 0.5 mph NW0.8 kmh NW 2.0 mph3.2 kmh 29.62 in1003.0 mb 0.00 in0.0 mm 0.00 in0.0 mm 0.00 in0.0 mm
06:40 AM 54.1°F12.3°C 48.2°F9.0°C 80% 0.7 mph NW1.1 kmh NW 2.0 mph3.2 kmh 29.62 in1003.0 mb 0.00 in0.0 mm 0.00 in0.0 mm 0.00 in0.0 mm
06:45 AM 54.3°F12.4°C 48.2°F9.0°C 80% 0.2 mph NW0.3 kmh NW 2.0 mph3.2 kmh 29.62 in1003.0 mb 0.00 in0.0 mm 0.00 in0.0 mm 0.00 in0.0 mm
06:50 AM 54.5°F12.5°C 50.0°F10.0°C 80% 0.1 mph NNW0.2 kmh NNW 1.1 mph1.8 kmh 29.62 in1003.0 mb 0.00 in0.0 mm 0.00 in0.0 mm 0.00 in0.0 mm
06:55 AM 55.0°F12.8°C 50.0°F10.0°C 81% 0.1 mph NNW0.2 kmh NNW 1.1 mph1.8 kmh 29.62 in1003.0 mb 0.00 in0.0 mm 0.00 in0.0 mm 0.00 in0.0 mm
07:00 AM 55.9°F13.3°C 50.0°F10.0°C 81% 0.3 mph N0.5 kmh N 1.6 mph2.6 kmh 29.62 in1003.0 mb 0.00 in0.0 mm 0.00 in0.0 mm 0.00 in0.0 mm
07:05 AM 57.2°F14.0°C 51.8°F11.0°C 82% 0.4 mph NE0.6 kmh NE 1.6 mph2.6 kmh 29.62 in1003.0 mb 0.00 in0.0 mm 0.00 in0.0 mm 0.00 in0.0 mm
07:10 AM 57.7°F14.3°C 51.8°F11.0°C 81% 1.1 mph E1.8 kmh E 2.9 mph4.7 kmh 29.59 in1002.0 mb 0.00 in0.0 mm 0.00 in0.0 mm 0.00 in0.0 mm
07:15 AM 58.6°F14.8°C 53.6°F12.0°C 81% 1.1 mph E1.8 kmh E 2.9 mph4.7 kmh 29.59 in1002.0 mb 0.00 in0.0 mm 0.00 in0.0 mm 0.00 in0.0 mm
07:20 AM 59.0°F15.0°C 53.6°F12.0°C 81% 1.4 mph E2.3 kmh E 4.3 mph6.9 kmh 29.59 in1002.0 mb 0.00 in0.0 mm 0.00 in0.0 mm 0.00 in0.0 mm
07:25 AM 59.4°F15.2°C 53.6°F12.0°C 81% 2.7 mph ESE4.3 kmh ESE 5.8 mph9.3 kmh 29.59 in1002.0 mb 0.00 in0.0 mm 0.00 in0.0 mm 0.00 in0.0 mm
07:30 AM 59.5°F15.3°C 53.6°F12.0°C 80% 3.6 mph SE5.8 kmh SE 5.8 mph9.3 kmh 29.59 in1002.0 mb 0.00 in0.0 mm 0.00 in0.0 mm 0.00 in0.0 mm
07:35 AM 59.7°F15.4°C 53.6°F12.0°C 79% 3.1 mph ESE5.0 kmh ESE 4.9 mph7.9 kmh 29.59 in1002.0 mb 0.00 in0.0 mm 0.00 in0.0 mm 0.00 in0.0 mm
07:40 AM 59.9°F15.5°C 53.6°F12.0°C 79% 2.7 mph ESE4.3 kmh ESE 4.9 mph7.9 kmh 29.59 in1002.0 mb 0.00 in0.0 mm 0.00 in0.0 mm 0.00 in0.0 mm
07:45 AM 59.9°F15.5°C 53.6°F12.0°C 79% 2.6 mph ESE4.2 kmh ESE 5.6 mph9.0 kmh 29.59 in1002.0 mb 0.00 in0.0 mm 0.00 in0.0 mm 0.00 in0.0 mm
07:50 AM 60.6°F15.9°C 55.4°F13.0°C 79% 2.9 mph SE4.7 kmh SE 5.6 mph9.0 kmh 29.59 in1002.0 mb 0.00 in0.0 mm 0.00 in0.0 mm 0.00 in0.0 mm
07:55 AM 61.0°F16.1°C 55.4°F13.0°C 79% 3.8 mph ESE6.1 kmh ESE 5.6 mph9.0 kmh 29.59 in1002.0 mb 0.00 in0.0 mm 0.00 in0.0 mm 0.00 in0.0 mm
08:00 AM 61.3°F16.3°C 55.4°F13.0°C 79% 4.5 mph E7.2 kmh E 5.6 mph9.0 kmh 29.59 in1002.0 mb 0.00 in0.0 mm 0.00 in0.0 mm 0.00 in0.0 mm
08:05 AM 61.5°F16.4°C 55.4°F13.0°C 79% 3.8 mph E6.1 kmh E 5.6 mph9.0 kmh 29.59 in1002.0 mb 0.00 in0.0 mm 0.00 in0.0 mm 0.00 in0.0 mm
08:10 AM 61.9°F16.6°C 55.4°F13.0°C 79% 3.0 mph ESE4.8 kmh ESE 4.3 mph6.9 kmh 29.59 in1002.0 mb 0.00 in0.0 mm 0.00 in0.0 mm 0.00 in0.0 mm
08:15 AM 62.6°F17.0°C 55.4°F13.0°C 77% 3.5 mph E5.6 kmh E 5.4 mph8.7 kmh 29.59 in1002.0 mb 0.00 in0.0 mm 0.00 in0.0 mm 0.00 in0.0 mm
08:20 AM 63.3°F17.4°C 55.4°F13.0°C 77% 4.0 mph E6.4 kmh E 6.5 mph10.5 kmh 29.59 in1002.0 mb 0.00 in0.0 mm 0.00 in0.0 mm 0.00 in0.0 mm
08:25 AM 64.0°F17.8°C 57.2°F14.0°C 77% 3.8 mph ESE6.1 kmh ESE 6.5 mph10.5 kmh 29.59 in1002.0 mb 0.00 in0.0 mm 0.00 in0.0 mm 0.00 in0.0 mm
08:30 AM 64.8°F18.2°C 57.2°F14.0°C 76% 4.0 mph SE6.4 kmh SE 6.3 mph10.1 kmh 29.59 in1002.0 mb 0.00 in0.0 mm 0.00 in0.0 mm 0.00 in0.0 mm
08:35 AM 65.5°F18.6°C 57.2°F14.0°C 75% 4.7 mph SE7.6 kmh SE 7.6 mph12.2 kmh 29.59 in1002.0 mb 0.00 in0.0 mm 0.00 in0.0 mm 0.00 in0.0 mm
08:40 AM 65.1°F18.4°C 57.2°F14.0°C 75% 4.5 mph SE7.2 kmh SE 7.6 mph12.2 kmh 29.59 in1002.0 mb 0.00 in0.0 mm 0.00 in0.0 mm 0.00 in0.0 mm
08:45 AM 66.7°F19.3°C 59.0°F15.0°C 74% 4.0 mph SE6.4 kmh SE 7.6 mph12.2 kmh 29.59 in1002.0 mb 0.00 in0.0 mm 0.00 in0.0 mm 0.00 in0.0 mm
08:50 AM 67.6°F19.8°C 59.0°F15.0°C 73% 4.1 mph SE6.6 kmh SE 5.8 mph9.3 kmh 29.59 in1002.0 mb 0.00 in0.0 mm 0.00 in0.0 mm 0.00 in0.0 mm
08:55 AM 68.0°F20.0°C 59.0°F15.0°C 71% 4.3 mph SE6.9 kmh SE 7.6 mph12.2 kmh 29.59 in1002.0 mb 0.00 in0.0 mm 0.00 in0.0 mm 0.00 in0.0 mm
09:05 AM 69.3°F20.7°C 59.0°F15.0°C 70% 4.4 mph SSE7.1 kmh SSE 5.8 mph9.3 kmh 29.59 in1002.0 mb 0.00 in0.0 mm 0.00 in0.0 mm 0.00 in0.0 mm
09:10 AM 70.0°F21.1°C 59.0°F15.0°C 69% 4.6 mph SSE7.4 kmh SSE 5.8 mph9.3 kmh 29.59 in1002.0 mb 0.00 in0.0 mm 0.00 in0.0 mm 0.00 in0.0 mm
09:15 AM 70.9°F21.6°C 60.8°F16.0°C 69% 5.2 mph SE8.4 kmh SE 8.1 mph13.0 kmh 29.59 in1002.0 mb 0.00 in0.0 mm 0.00 in0.0 mm 0.00 in0.0 mm
09:20 AM 71.2°F21.8°C 60.8°F16.0°C 68% 5.9 mph SE9.5 kmh SE 8.1 mph13.0 kmh 29.59 in1002.0 mb 0.00 in0.0 mm 0.00 in0.0 mm 0.00 in0.0 mm
09:25 AM 71.2°F21.8°C 59.0°F15.0°C 67% 6.4 mph SE10.3 kmh SE 8.5 mph13.7 kmh 29.59 in1002.0 mb 0.00 in0.0 mm 0.00 in0.0 mm 0.00 in0.0 mm
09:30 AM 70.0°F21.1°C 59.0°F15.0°C 68% 5.6 mph SE9.0 kmh SE 8.5 mph13.7 kmh 29.59 in1002.0 mb 0.00 in0.0 mm 0.00 in0.0 mm 0.00 in0.0 mm
09:35 AM 69.4°F20.8°C 59.0°F15.0°C 69% 4.4 mph SE7.1 kmh SE 7.6 mph12.2 kmh 29.59 in1002.0 mb 0.00 in0.0 mm 0.00 in0.0 mm 0.00 in0.0 mm
09:40 AM 69.3°F20.7°C 59.0°F15.0°C 69% 4.5 mph SE7.2 kmh SE 8.1 mph13.0 kmh 29.59 in1002.0 mb 0.00 in0.0 mm 0.00 in0.0 mm 0.00 in0.0 mm
09:45 AM 69.1°F20.6°C 59.0°F15.0°C 69% 4.1 mph SE6.6 kmh SE 8.1 mph13.0 kmh 29.59 in1002.0 mb 0.00 in0.0 mm 0.00 in0.0 mm 0.00 in0.0 mm
09:50 AM 69.1°F20.6°C 59.0°F15.0°C 69% 3.7 mph SE6.0 kmh SE 5.6 mph9.0 kmh 29.59 in1002.0 mb 0.00 in0.0 mm 0.00 in0.0 mm 0.00 in0.0 mm
09:55 AM 70.0°F21.1°C 59.0°F15.0°C 68% 4.8 mph SSE7.7 kmh SSE 8.7 mph14.0 kmh 29.59 in1002.0 mb 0.00 in0.0 mm 0.00 in0.0 mm 0.00 in0.0 mm
10:00 AM 70.7°F21.5°C 60.8°F16.0°C 68% 4.1 mph SSE6.6 kmh SSE 8.7 mph14.0 kmh 29.59 in1002.0 mb 0.00 in0.0 mm 0.00 in0.0 mm 0.00 in0.0 mm
10:05 AM 70.7°F21.5°C 59.0°F15.0°C 67% 3.7 mph SE6.0 kmh SE 7.4 mph11.9 kmh 29.59 in1002.0 mb 0.00 in0.0 mm 0.00 in0.0 mm 0.00 in0.0 mm
10:10 AM 73.2°F22.9°C 60.8°F16.0°C 66% 4.7 mph SE7.6 kmh SE 7.4 mph11.9 kmh 29.59 in1002.0 mb 0.00 in0.0 mm 0.00 in0.0 mm 0.00 in0.0 mm
10:15 AM 72.5°F22.5°C 60.8°F16.0°C 65% 5.1 mph SE8.2 kmh SE 7.6 mph12.2 kmh 29.59 in1002.0 mb 0.00 in0.0 mm 0.00 in0.0 mm 0.00 in0.0 mm
10:20 AM 73.2°F22.9°C 60.8°F16.0°C 65% 4.8 mph SE7.7 kmh SE 7.6 mph12.2 kmh 29.59 in1002.0 mb 0.00 in0.0 mm 0.00 in0.0 mm 0.00 in0.0 mm
10:25 AM 73.8°F23.2°C 62.6°F17.0°C 65% 3.0 mph E4.8 kmh E 4.0 mph6.4 kmh 29.59 in1002.0 mb 0.00 in0.0 mm 0.00 in0.0 mm 0.00 in0.0 mm
10:30 AM 73.2°F22.9°C 60.8°F16.0°C 65% 3.4 mph E5.5 kmh E 4.9 mph7.9 kmh 29.59 in1002.0 mb 0.00 in0.0 mm 0.00 in0.0 mm 0.00 in0.0 mm
10:35 AM 74.7°F23.7°C 62.6°F17.0°C 64% 4.2 mph SE6.8 kmh SE 5.8 mph9.3 kmh 29.59 in1002.0 mb 0.00 in0.0 mm 0.00 in0.0 mm 0.00 in0.0 mm
10:40 AM 75.6°F24.2°C 62.6°F17.0°C 62% 4.3 mph SE6.9 kmh SE 5.8 mph9.3 kmh 29.56 in1001.0 mb 0.00 in0.0 mm 0.00 in0.0 mm 0.00 in0.0 mm
10:45 AM 74.5°F23.6°C 60.8°F16.0°C 62% 3.7 mph SE6.0 kmh SE 5.6 mph9.0 kmh 29.56 in1001.0 mb 0.00 in0.0 mm 0.00 in0.0 mm 0.00 in0.0 mm
10:50 AM 76.3°F24.6°C 62.6°F17.0°C 61% 3.1 mph SE5.0 kmh SE 4.3 mph6.9 kmh 29.56 in1001.0 mb 0.00 in0.0 mm 0.00 in0.0 mm 0.00 in0.0 mm
10:55 AM 73.9°F23.3°C 60.8°F16.0°C 62% 3.6 mph SE5.8 kmh SE 8.5 mph13.7 kmh 29.56 in1001.0 mb 0.00 in0.0 mm 0.00 in0.0 mm 0.00 in0.0 mm
11:00 AM 74.1°F23.4°C 60.8°F16.0°C 62% 3.9 mph SE6.3 kmh SE 8.5 mph13.7 kmh 29.56 in1001.0 mb 0.00 in0.0 mm 0.00 in0.0 mm 0.00 in0.0 mm
11:05 AM 73.9°F23.3°C 60.8°F16.0°C 62% 3.2 mph SE5.1 kmh SE 4.3 mph6.9 kmh 29.56 in1001.0 mb 0.00 in0.0 mm 0.00 in0.0 mm 0.00 in0.0 mm
11:10 AM 74.1°F23.4°C 60.8°F16.0°C 62% 3.3 mph SE5.3 kmh SE 5.6 mph9.0 kmh 29.56 in1001.0 mb 0.00 in0.0 mm 0.00 in0.0 mm 0.00 in0.0 mm
11:15 AM 74.3°F23.5°C 60.8°F16.0°C 62% 3.5 mph SE5.6 kmh SE 5.6 mph9.0 kmh 29.56 in1001.0 mb 0.00 in0.0 mm 0.00 in0.0 mm 0.00 in0.0 mm
11:20 AM 74.5°F23.6°C 60.8°F16.0°C 62% 3.5 mph SE5.6 kmh SE 5.6 mph9.0 kmh 29.56 in1001.0 mb 0.00 in0.0 mm 0.00 in0.0 mm 0.00 in0.0 mm
11:25 AM 75.9°F24.4°C 60.8°F16.0°C 60% 3.5 mph SE5.6 kmh SE 4.5 mph7.2 kmh 29.56 in1001.0 mb 0.00 in0.0 mm 0.00 in0.0 mm 0.00 in0.0 mm
11:30 AM 75.7°F24.3°C 60.8°F16.0°C 61% 3.1 mph ESE5.0 kmh ESE 4.7 mph7.6 kmh 29.56 in1001.0 mb 0.00 in0.0 mm 0.00 in0.0 mm 0.00 in0.0 mm
11:35 AM 77.7°F25.4°C 62.6°F17.0°C 59% 3.4 mph E5.5 kmh E 5.4 mph8.7 kmh 29.56 in1001.0 mb 0.00 in0.0 mm 0.00 in0.0 mm 0.00 in0.0 mm
11:40 AM 79.9°F26.6°C 64.4°F18.0°C 58% 4.6 mph ESE7.4 kmh ESE 6.7 mph10.8 kmh 29.56 in1001.0 mb 0.00 in0.0 mm 0.00 in0.0 mm 0.00 in0.0 mm
11:45 AM 79.7°F26.5°C 64.4°F18.0°C 57% 4.4 mph ESE7.1 kmh ESE 6.7 mph10.8 kmh 29.56 in1001.0 mb 0.00 in0.0 mm 0.00 in0.0 mm 0.00 in0.0 mm
11:50 AM 78.8°F26.0°C 62.6°F17.0°C 58% 4.0 mph SE6.4 kmh SE 6.0 mph9.7 kmh 29.56 in1001.0 mb 0.00 in0.0 mm 0.00 in0.0 mm 0.00 in0.0 mm
11:55 AM 79.2°F26.2°C 62.6°F17.0°C 57% 4.7 mph SE7.6 kmh SE 6.0 mph9.7 kmh 29.56 in1001.0 mb 0.00 in0.0 mm 0.00 in0.0 mm 0.00 in0.0 mm
12:00 PM 78.1°F25.6°C 62.6°F17.0°C 57% 4.3 mph ESE6.9 kmh ESE 6.5 mph10.5 kmh 29.56 in1001.0 mb 0.00 in0.0 mm 0.00 in0.0 mm 0.00 in0.0 mm
12:05 PM 77.4°F25.2°C 60.8°F16.0°C 57% 3.8 mph ESE6.1 kmh ESE 6.5 mph10.5 kmh 29.56 in1001.0 mb 0.00 in0.0 mm 0.00 in0.0 mm 0.00 in0.0 mm
12:10 PM 76.5°F24.7°C 60.8°F16.0°C 59% 4.3 mph ESE6.9 kmh ESE 7.6 mph12.2 kmh 29.53 in1000.0 mb 0.00 in0.0 mm 0.00 in0.0 mm 0.00 in0.0 mm
12:15 PM 76.3°F24.6°C 60.8°F16.0°C 59% 4.3 mph E6.9 kmh E 7.6 mph12.2 kmh 29.53 in1000.0 mb 0.00 in0.0 mm 0.00 in0.0 mm 0.00 in0.0 mm
12:20 PM 76.5°F24.7°C 60.8°F16.0°C 59% 4.0 mph E6.4 kmh E 7.4 mph11.9 kmh 29.53 in1000.0 mb 0.00 in0.0 mm 0.00 in0.0 mm 0.00 in0.0 mm
12:25 PM 78.8°F26.0°C 62.6°F17.0°C 57% 5.0 mph SE8.0 kmh SE 8.1 mph13.0 kmh 29.53 in1000.0 mb 0.00 in0.0 mm 0.00 in0.0 mm 0.00 in0.0 mm
12:30 PM 79.0°F26.1°C 62.6°F17.0°C 56% 6.3 mph SE10.1 kmh SE 8.1 mph13.0 kmh 29.53 in1000.0 mb 0.00 in0.0 mm 0.00 in0.0 mm 0.00 in0.0 mm
12:35 PM 80.2°F26.8°C 62.6°F17.0°C 56% 7.0 mph SE11.3 kmh SE 10.3 mph16.6 kmh 29.53 in1000.0 mb 0.00 in0.0 mm 0.00 in0.0 mm 0.00 in0.0 mm
12:40 PM 79.7°F26.5°C 62.6°F17.0°C 56% 8.2 mph SE13.2 kmh SE 12.1 mph19.5 kmh 29.53 in1000.0 mb 0.00 in0.0 mm 0.00 in0.0 mm 0.00 in0.0 mm
12:45 PM 80.6°F27.0°C 62.6°F17.0°C 54% 7.5 mph SE12.1 kmh SE 12.1 mph19.5 kmh 29.53 in1000.0 mb 0.00 in0.0 mm 0.00 in0.0 mm 0.00 in0.0 mm
12:50 PM 79.0°F26.1°C 60.8°F16.0°C 55% 5.0 mph ESE8.0 kmh ESE 9.4 mph15.1 kmh 29.53 in1000.0 mb 0.00 in0.0 mm 0.00 in0.0 mm 0.00 in0.0 mm
12:55 PM 78.3°F25.7°C 60.8°F16.0°C 55% 4.6 mph ESE7.4 kmh ESE 7.4 mph11.9 kmh 29.53 in1000.0 mb 0.00 in0.0 mm 0.00 in0.0 mm 0.00 in0.0 mm
01:00 PM 78.3°F25.7°C 60.8°F16.0°C 55% 5.2 mph ESE8.4 kmh ESE 7.8 mph12.6 kmh 29.53 in1000.0 mb 0.00 in0.0 mm 0.00 in0.0 mm 0.00 in0.0 mm
01:05 PM 77.9°F25.5°C 60.8°F16.0°C 56% 5.1 mph ESE8.2 kmh ESE 8.1 mph13.0 kmh 29.53 in1000.0 mb 0.00 in0.0 mm 0.00 in0.0 mm 0.00 in0.0 mm
01:10 PM 77.4°F25.2°C 60.8°F16.0°C 56% 6.0 mph SE9.7 kmh SE 8.1 mph13.0 kmh 29.53 in1000.0 mb 0.00 in0.0 mm 0.00 in0.0 mm 0.00 in0.0 mm
01:15 PM 76.5°F24.7°C 60.8°F16.0°C 57% 7.1 mph SE11.4 kmh SE 11.4 mph18.3 kmh 29.53 in1000.0 mb 0.00 in0.0 mm 0.00 in0.0 mm 0.00 in0.0 mm
01:20 PM 75.9°F24.4°C 59.0°F15.0°C 57% 6.3 mph ESE10.1 kmh ESE 11.4 mph18.3 kmh 29.53 in1000.0 mb 0.00 in0.0 mm 0.00 in0.0 mm 0.00 in0.0 mm
01:25 PM 75.6°F24.2°C 59.0°F15.0°C 57% 4.7 mph ESE7.6 kmh ESE 6.5 mph10.5 kmh 29.53 in1000.0 mb 0.00 in0.0 mm 0.00 in0.0 mm 0.00 in0.0 mm
01:30 PM 75.0°F23.9°C 59.0°F15.0°C 58% 5.5 mph SE8.9 kmh SE 8.5 mph13.7 kmh 29.53 in1000.0 mb 0.00 in0.0 mm 0.00 in0.0 mm 0.00 in0.0 mm
01:35 PM 74.7°F23.7°C 59.0°F15.0°C 58% 6.0 mph SE9.7 kmh SE 8.9 mph14.3 kmh 29.53 in1000.0 mb 0.00 in0.0 mm 0.00 in0.0 mm 0.00 in0.0 mm
01:40 PM 74.1°F23.4°C 59.0°F15.0°C 59% 6.3 mph SE10.1 kmh SE 10.3 mph16.6 kmh 29.53 in1000.0 mb 0.00 in0.0 mm 0.00 in0.0 mm 0.00 in0.0 mm
01:45 PM 73.8°F23.2°C 59.0°F15.0°C 59% 5.3 mph SE8.5 kmh SE 10.3 mph16.6 kmh 29.53 in1000.0 mb 0.00 in0.0 mm 0.00 in0.0 mm 0.00 in0.0 mm
01:50 PM 73.8°F23.2°C 59.0°F15.0°C 59% 4.4 mph SE7.1 kmh SE 8.5 mph13.7 kmh 29.53 in1000.0 mb 0.00 in0.0 mm 0.00 in0.0 mm 0.00 in0.0 mm
01:55 PM 73.2°F22.9°C 59.0°F15.0°C 59% 5.7 mph SE9.2 kmh SE 9.8 mph15.8 kmh 29.53 in1000.0 mb 0.00 in0.0 mm 0.00 in0.0 mm 0.00 in0.0 mm
02:00 PM 73.2°F22.9°C 59.0°F15.0°C 59% 7.0 mph SE11.3 kmh SE 9.8 mph15.8 kmh 29.53 in1000.0 mb 0.00 in0.0 mm 0.00 in0.0 mm 0.00 in0.0 mm
02:05 PM 73.4°F23.0°C 59.0°F15.0°C 59% 6.6 mph SE10.6 kmh SE 8.7 mph14.0 kmh 29.53 in1000.0 mb 0.00 in0.0 mm 0.00 in0.0 mm 0.00 in0.0 mm
02:10 PM 73.2°F22.9°C 59.0°F15.0°C 59% 5.4 mph SE8.7 kmh SE 8.7 mph14.0 kmh 29.53 in1000.0 mb 0.00 in0.0 mm 0.00 in0.0 mm 0.00 in0.0 mm
02:15 PM 72.9°F22.7°C 57.2°F14.0°C 59% 5.0 mph SE8.0 kmh SE 8.5 mph13.7 kmh 29.53 in1000.0 mb 0.00 in0.0 mm 0.00 in0.0 mm 0.00 in0.0 mm
02:20 PM 72.3°F22.4°C 57.2°F14.0°C 59% 5.6 mph SE9.0 kmh SE 8.5 mph13.7 kmh 29.53 in1000.0 mb 0.00 in0.0 mm 0.00 in0.0 mm 0.00 in0.0 mm
02:25 PM 72.1°F22.3°C 57.2°F14.0°C 59% 5.0 mph SE8.0 kmh SE 6.5 mph10.5 kmh 29.53 in1000.0 mb 0.00 in0.0 mm 0.00 in0.0 mm 0.00 in0.0 mm
02:30 PM 72.0°F22.2°C 57.2°F14.0°C 59% 4.7 mph SE7.6 kmh SE 7.2 mph11.6 kmh 29.53 in1000.0 mb 0.00 in0.0 mm 0.00 in0.0 mm 0.00 in0.0 mm
02:35 PM 71.8°F22.1°C 57.2°F14.0°C 59% 4.6 mph SE7.4 kmh SE 7.2 mph11.6 kmh 29.53 in1000.0 mb 0.00 in0.0 mm 0.00 in0.0 mm 0.00 in0.0 mm
02:40 PM 71.8°F22.1°C 57.2°F14.0°C 60% 4.4 mph SE7.1 kmh SE 7.2 mph11.6 kmh 29.53 in1000.0 mb 0.00 in0.0 mm 0.00 in0.0 mm 0.00 in0.0 mm
02:45 PM 71.8°F22.1°C 57.2°F14.0°C 60% 4.1 mph SE6.6 kmh SE 8.1 mph13.0 kmh 29.53 in1000.0 mb 0.00 in0.0 mm 0.00 in0.0 mm 0.00 in0.0 mm
02:50 PM 71.8°F22.1°C 57.2°F14.0°C 60% 3.8 mph SE6.1 kmh SE 8.1 mph13.0 kmh 29.53 in1000.0 mb 0.00 in0.0 mm 0.00 in0.0 mm 0.00 in0.0 mm
02:55 PM 71.6°F22.0°C 57.2°F14.0°C 60% 3.8 mph SE6.1 kmh SE 5.4 mph8.7 kmh 29.53 in1000.0 mb 0.00 in0.0 mm 0.00 in0.0 mm 0.00 in0.0 mm
03:00 PM 71.4°F21.9°C 57.2°F14.0°C 61% 3.8 mph SE6.1 kmh SE 4.9 mph7.9 kmh 29.53 in1000.0 mb 0.00 in0.0 mm 0.00 in0.0 mm 0.00 in0.0 mm
03:05 PM 71.2°F21.8°C 57.2°F14.0°C 61% 4.0 mph SE6.4 kmh SE 6.5 mph10.5 kmh 29.53 in1000.0 mb 0.00 in0.0 mm 0.00 in0.0 mm 0.00 in0.0 mm
03:10 PM 71.1°F21.7°C 57.2°F14.0°C 61% 4.1 mph SE6.6 kmh SE 6.5 mph10.5 kmh 29.53 in1000.0 mb 0.00 in0.0 mm 0.00 in0.0 mm 0.00 in0.0 mm
03:15 PM 70.9°F21.6°C 57.2°F14.0°C 61% 3.8 mph SE6.1 kmh SE 4.9 mph7.9 kmh 29.53 in1000.0 mb 0.00 in0.0 mm 0.00 in0.0 mm 0.00 in0.0 mm
03:20 PM 70.7°F21.5°C 57.2°F14.0°C 61% 3.0 mph SE4.8 kmh SE 4.9 mph7.9 kmh 29.53 in1000.0 mb 0.00 in0.0 mm 0.00 in0.0 mm 0.00 in0.0 mm
03:25 PM 70.7°F21.5°C 57.2°F14.0°C 61% 2.8 mph SE4.5 kmh SE 4.9 mph7.9 kmh 29.53 in1000.0 mb 0.00 in0.0 mm 0.00 in0.0 mm 0.00 in0.0 mm
03:30 PM 70.7°F21.5°C 57.2°F14.0°C 62% 2.8 mph SE4.5 kmh SE 4.9 mph7.9 kmh 29.53 in1000.0 mb 0.00 in0.0 mm 0.00 in0.0 mm 0.00 in0.0 mm
03:35 PM 70.3°F21.3°C 57.2°F14.0°C 62% 2.1 mph SE3.4 kmh SE 4.0 mph6.4 kmh 29.53 in1000.0 mb 0.00 in0.0 mm 0.00 in0.0 mm 0.00 in0.0 mm
03:40 PM 70.2°F21.2°C 57.2°F14.0°C 64% 1.5 mph SE2.4 kmh SE 3.4 mph5.5 kmh 29.53 in1000.0 mb 0.00 in0.0 mm 0.00 in0.0 mm 0.00 in0.0 mm
03:45 PM 70.2°F21.2°C 59.0°F15.0°C 65% 0.7 mph SE1.1 kmh SE 2.0 mph3.2 kmh 29.53 in1000.0 mb 0.00 in0.0 mm 0.00 in0.0 mm 0.00 in0.0 mm
03:50 PM 70.2°F21.2°C 59.0°F15.0°C 66% 0.8 mph SE1.3 kmh SE 2.2 mph3.5 kmh 29.53 in1000.0 mb 0.00 in0.0 mm 0.00 in0.0 mm 0.00 in0.0 mm
03:55 PM 70.2°F21.2°C 59.0°F15.0°C 66% 0.7 mph SE1.1 kmh SE 2.2 mph3.5 kmh 29.50 in999.0 mb 0.00 in0.0 mm 0.00 in0.0 mm 0.00 in0.0 mm
04:00 PM 70.3°F21.3°C 59.0°F15.0°C 67% 0.2 mph ESE0.3 kmh ESE 1.1 mph1.8 kmh 29.50 in999.0 mb 0.00 in0.0 mm 0.00 in0.0 mm 0.00 in0.0 mm
04:05 PM 70.5°F21.4°C 59.0°F15.0°C 67% 0.6 mph ESE1.0 kmh ESE 1.6 mph2.6 kmh 29.50 in999.0 mb 0.00 in0.0 mm 0.00 in0.0 mm 0.00 in0.0 mm
04:10 PM 70.5°F21.4°C 59.0°F15.0°C 67% 0.7 mph ESE1.1 kmh ESE 1.6 mph2.6 kmh 29.50 in999.0 mb 0.00 in0.0 mm 0.00 in0.0 mm 0.00 in0.0 mm
04:15 PM 70.3°F21.3°C 59.0°F15.0°C 67% 0.2 mph SE0.3 kmh SE 1.3 mph2.1 kmh 29.50 in999.0 mb 0.00 in0.0 mm 0.00 in0.0 mm 0.00 in0.0 mm
04:20 PM 70.2°F21.2°C 59.0°F15.0°C 67% 0.1 mph SW0.2 kmh SW 2.2 mph3.5 kmh 29.50 in999.0 mb 0.00 in0.0 mm 0.00 in0.0 mm 0.00 in0.0 mm
04:25 PM 70.2°F21.2°C 59.0°F15.0°C 67% 0.8 mph SSW1.3 kmh SSW 2.2 mph3.5 kmh 29.53 in1000.0 mb 0.00 in0.0 mm 0.00 in0.0 mm 0.00 in0.0 mm
04:30 PM 70.0°F21.1°C 59.0°F15.0°C 67% 1.1 mph SSW1.8 kmh SSW 2.2 mph3.5 kmh 29.53 in1000.0 mb 0.00 in0.0 mm 0.00 in0.0 mm 0.00 in0.0 mm
04:35 PM 69.8°F21.0°C 59.0°F15.0°C 68% 0.8 mph SSW1.3 kmh SSW 2.9 mph4.7 kmh 29.53 in1000.0 mb 0.00 in0.0 mm 0.00 in0.0 mm 0.00 in0.0 mm
04:40 PM 69.6°F20.9°C 59.0°F15.0°C 68% 0.7 mph SW1.1 kmh SW 2.9 mph4.7 kmh 29.53 in1000.0 mb 0.00 in0.0 mm 0.00 in0.0 mm 0.00 in0.0 mm
04:45 PM 69.4°F20.8°C 59.0°F15.0°C 68% 0.7 mph WSW1.1 kmh WSW 2.2 mph3.5 kmh 29.53 in1000.0 mb 0.00 in0.0 mm 0.00 in0.0 mm 0.00 in0.0 mm
04:50 PM 69.1°F20.6°C 59.0°F15.0°C 68% 1.4 mph WSW2.3 kmh WSW 4.0 mph6.4 kmh 29.53 in1000.0 mb 0.00 in0.0 mm 0.00 in0.0 mm 0.00 in0.0 mm
04:55 PM 68.7°F20.4°C 57.2°F14.0°C 69% 1.4 mph WSW2.3 kmh WSW 4.0 mph6.4 kmh 29.53 in1000.0 mb 0.00 in0.0 mm 0.00 in0.0 mm 0.00 in0.0 mm
05:00 PM 68.7°F20.4°C 57.2°F14.0°C 69% 0.7 mph WSW1.1 kmh WSW 3.1 mph5.0 kmh 29.53 in1000.0 mb 0.00 in0.0 mm 0.00 in0.0 mm 0.00 in0.0 mm
05:05 PM 68.4°F20.2°C 57.2°F14.0°C 69% 0.4 mph W0.6 kmh W 2.0 mph3.2 kmh 29.53 in1000.0 mb 0.00 in0.0 mm 0.00 in0.0 mm 0.00 in0.0 mm
05:10 PM 68.4°F20.2°C 59.0°F15.0°C 70% 0.5 mph WSW0.8 kmh WSW 2.0 mph3.2 kmh 29.53 in1000.0 mb 0.00 in0.0 mm 0.00 in0.0 mm 0.00 in0.0 mm
05:15 PM 68.2°F20.1°C 57.2°F14.0°C 70% 0.2 mph WSW0.3 kmh WSW 1.1 mph1.8 kmh 29.53 in1000.0 mb 0.00 in0.0 mm 0.00 in0.0 mm 0.00 in0.0 mm
05:20 PM 68.2°F20.1°C 57.2°F14.0°C 70% Calm Calm -- 29.53 in1000.0 mb 0.00 in0.0 mm 0.00 in0.0 mm 0.00 in0.0 mm
05:25 PM 68.0°F20.0°C 59.0°F15.0°C 71% 0.1 mph W0.2 kmh W 2.2 mph3.5 kmh 29.53 in1000.0 mb 0.00 in0.0 mm 0.00 in0.0 mm 0.00 in0.0 mm
05:30 PM 67.8°F19.9°C 59.0°F15.0°C 72% 0.1 mph W0.2 kmh W 2.2 mph3.5 kmh 29.53 in1000.0 mb 0.00 in0.0 mm 0.00 in0.0 mm 0.00 in0.0 mm
05:35 PM 67.8°F19.9°C 59.0°F15.0°C 72% 0.1 mph SSW0.2 kmh SSW 1.6 mph2.6 kmh 29.53 in1000.0 mb 0.00 in0.0 mm 0.00 in0.0 mm 0.00 in0.0 mm
05:40 PM 67.6°F19.8°C 59.0°F15.0°C 72% 0.1 mph SSW0.2 kmh SSW 1.6 mph2.6 kmh 29.53 in1000.0 mb 0.00 in0.0 mm 0.00 in0.0 mm 0.00 in0.0 mm
05:45 PM 67.5°F19.7°C 59.0°F15.0°C 72% 0.2 mph SSW0.3 kmh SSW 1.6 mph2.6 kmh 29.53 in1000.0 mb 0.00 in0.0 mm 0.00 in0.0 mm 0.00 in0.0 mm
05:50 PM 67.3°F19.6°C 59.0°F15.0°C 72% 0.3 mph SSW0.5 kmh SSW 1.6 mph2.6 kmh 29.53 in1000.0 mb 0.00 in0.0 mm 0.00 in0.0 mm 0.00 in0.0 mm
05:55 PM 67.1°F19.5°C 59.0°F15.0°C 73% 0.4 mph W0.6 kmh W 2.0 mph3.2 kmh 29.53 in1000.0 mb 0.00 in0.0 mm 0.00 in0.0 mm 0.00 in0.0 mm
06:00 PM 67.1°F19.5°C 59.0°F15.0°C 73% 0.5 mph W0.8 kmh W 2.0 mph3.2 kmh 29.53 in1000.0 mb 0.00 in0.0 mm 0.00 in0.0 mm 0.00 in0.0 mm
06:05 PM 66.9°F19.4°C 57.2°F14.0°C 72% 0.8 mph WSW1.3 kmh WSW 2.5 mph4.0 kmh 29.53 in1000.0 mb 0.00 in0.0 mm 0.00 in0.0 mm 0.00 in0.0 mm
06:10 PM 66.6°F19.2°C 57.2°F14.0°C 72% 2.0 mph SW3.2 kmh SW 3.4 mph5.5 kmh 29.53 in1000.0 mb 0.00 in0.0 mm 0.00 in0.0 mm 0.00 in0.0 mm
06:15 PM 66.6°F19.2°C 57.2°F14.0°C 73% 2.5 mph SW4.0 kmh SW 3.4 mph5.5 kmh 29.53 in1000.0 mb 0.00 in0.0 mm 0.00 in0.0 mm 0.00 in0.0 mm
06:20 PM 66.4°F19.1°C 57.2°F14.0°C 73% 2.1 mph WSW3.4 kmh WSW 3.6 mph5.8 kmh 29.53 in1000.0 mb 0.00 in0.0 mm 0.00 in0.0 mm 0.00 in0.0 mm
06:25 PM 66.2°F19.0°C 57.2°F14.0°C 73% 2.1 mph WSW3.4 kmh WSW 4.7 mph7.6 kmh 29.53 in1000.0 mb 0.00 in0.0 mm 0.00 in0.0 mm 0.00 in0.0 mm
06:30 PM 65.8°F18.8°C 57.2°F14.0°C 74% 2.1 mph WSW3.4 kmh WSW 4.7 mph7.6 kmh 29.53 in1000.0 mb 0.00 in0.0 mm 0.00 in0.0 mm 0.00 in0.0 mm
06:35 PM 65.5°F18.6°C 57.2°F14.0°C 73% 2.9 mph SW4.7 kmh SW 6.3 mph10.1 kmh 29.53 in1000.0 mb 0.00 in0.0 mm 0.00 in0.0 mm 0.00 in0.0 mm
06:40 PM 65.1°F18.4°C 57.2°F14.0°C 75% 3.0 mph SW4.8 kmh SW 6.3 mph10.1 kmh 29.56 in1001.0 mb 0.00 in0.0 mm 0.00 in0.0 mm 0.00 in0.0 mm
06:45 PM 64.9°F18.3°C 57.2°F14.0°C 75% 2.3 mph WSW3.7 kmh WSW 6.3 mph10.1 kmh 29.56 in1001.0 mb 0.00 in0.0 mm 0.00 in0.0 mm 0.00 in0.0 mm
06:50 PM 64.8°F18.2°C 57.2°F14.0°C 76% 1.6 mph SW2.6 kmh SW 3.8 mph6.1 kmh 29.56 in1001.0 mb 0.00 in0.0 mm 0.00 in0.0 mm 0.00 in0.0 mm
06:55 PM 64.4°F18.0°C 57.2°F14.0°C 75% 2.8 mph SSW4.5 kmh SSW 6.3 mph10.1 kmh 29.56 in1001.0 mb 0.00 in0.0 mm 0.00 in0.0 mm 0.00 in0.0 mm
07:00 PM 63.9°F17.7°C 55.4°F13.0°C 75% 4.4 mph SSW7.1 kmh SSW 6.3 mph10.1 kmh 29.56 in1001.0 mb 0.06 in1.5 mm 0.07 in1.8 mm 0.06 in1.5 mm
07:05 PM 63.5°F17.5°C 55.4°F13.0°C 76% 4.1 mph S6.6 kmh S 6.3 mph10.1 kmh 29.56 in1001.0 mb 0.06 in1.5 mm 0.00 in0.0 mm 0.06 in1.5 mm
07:10 PM 63.3°F17.4°C 55.4°F13.0°C 77% 3.6 mph SSW5.8 kmh SSW 5.8 mph9.3 kmh 29.56 in1001.0 mb 0.13 in3.3 mm 0.84 in21.3 mm 0.13 in3.3 mm
07:15 PM 63.0°F17.2°C 55.4°F13.0°C 77% 2.6 mph SW4.2 kmh SW 4.5 mph7.2 kmh 29.56 in1001.0 mb 0.18 in4.6 mm 0.60 in15.2 mm 0.18 in4.6 mm
07:20 PM 62.6°F17.0°C 55.4°F13.0°C 78% 2.0 mph SW3.2 kmh SW 4.7 mph7.6 kmh 29.56 in1001.0 mb 0.24 in6.1 mm 0.72 in18.3 mm 0.24 in6.1 mm
07:25 PM 62.2°F16.8°C 55.4°F13.0°C 79% 1.6 mph SSW2.6 kmh SSW 4.7 mph7.6 kmh 29.56 in1001.0 mb 0.24 in6.1 mm 0.00 in0.0 mm 0.24 in6.1 mm
07:30 PM 62.1°F16.7°C 55.4°F13.0°C 79% 1.5 mph S2.4 kmh S 3.1 mph5.0 kmh 29.56 in1001.0 mb 0.29 in7.4 mm 0.60 in15.2 mm 0.29 in7.4 mm
07:35 PM 62.1°F16.7°C 55.4°F13.0°C 80% 1.0 mph S1.6 kmh S 3.1 mph5.0 kmh 29.56 in1001.0 mb 0.29 in7.4 mm 0.00 in0.0 mm 0.29 in7.4 mm
07:40 PM 61.9°F16.6°C 55.4°F13.0°C 80% 1.1 mph S1.8 kmh S 3.1 mph5.0 kmh 29.56 in1001.0 mb 0.29 in7.4 mm 0.00 in0.0 mm 0.29 in7.4 mm
07:45 PM 61.9°F16.6°C 55.4°F13.0°C 80% 0.8 mph SW1.3 kmh SW 2.2 mph3.5 kmh 29.56 in1001.0 mb 0.29 in7.4 mm 0.00 in0.0 mm 0.29 in7.4 mm
07:50 PM 61.7°F16.5°C 55.4°F13.0°C 80% 0.9 mph SW1.4 kmh SW 2.7 mph4.3 kmh 29.56 in1001.0 mb 0.29 in7.4 mm 0.00 in0.0 mm 0.29 in7.4 mm
07:55 PM 61.7°F16.5°C 55.4°F13.0°C 80% 1.3 mph WSW2.1 kmh WSW 2.9 mph4.7 kmh 29.56 in1001.0 mb 0.29 in7.4 mm 0.00 in0.0 mm 0.29 in7.4 mm
08:00 PM 61.5°F16.4°C 55.4°F13.0°C 80% 1.7 mph SW2.7 kmh SW 3.8 mph6.1 kmh 29.56 in1001.0 mb 0.29 in7.4 mm 0.00 in0.0 mm 0.35 in8.9 mm
08:05 PM 61.5°F16.4°C 55.4°F13.0°C 80% 1.7 mph S2.7 kmh S 3.8 mph6.1 kmh 29.56 in1001.0 mb 0.29 in7.4 mm 0.00 in0.0 mm 0.35 in8.9 mm
08:10 PM 61.5°F16.4°C 55.4°F13.0°C 80% 1.4 mph S2.3 kmh S 3.6 mph5.8 kmh 29.56 in1001.0 mb 0.23 in5.8 mm 0.00 in0.0 mm 0.35 in8.9 mm
08:15 PM 61.5°F16.4°C 55.4°F13.0°C 80% 1.1 mph SSW1.8 kmh SSW 2.9 mph4.7 kmh 29.56 in1001.0 mb 0.17 in4.3 mm 0.00 in0.0 mm 0.35 in8.9 mm
08:20 PM 61.3°F16.3°C 55.4°F13.0°C 80% 1.3 mph SW2.1 kmh SW 3.6 mph5.8 kmh 29.56 in1001.0 mb 0.11 in2.8 mm 0.00 in0.0 mm 0.35 in8.9 mm
08:25 PM 61.3°F16.3°C 55.4°F13.0°C 80% 1.7 mph SW2.7 kmh SW 3.6 mph5.8 kmh 29.56 in1001.0 mb 0.11 in2.8 mm 0.00 in0.0 mm 0.35 in8.9 mm
08:30 PM 61.3°F16.3°C 55.4°F13.0°C 80% 1.0 mph SSW1.6 kmh SSW 2.9 mph4.7 kmh 29.56 in1001.0 mb 0.06 in1.5 mm 0.00 in0.0 mm 0.35 in8.9 mm
08:35 PM 61.2°F16.2°C 55.4°F13.0°C 80% 1.1 mph S1.8 kmh S 4.3 mph6.9 kmh 29.56 in1001.0 mb 0.06 in1.5 mm 0.00 in0.0 mm 0.35 in8.9 mm
08:40 PM 61.2°F16.2°C 55.4°F13.0°C 80% 1.8 mph SSE2.9 kmh SSE 4.3 mph6.9 kmh 29.59 in1002.0 mb 0.06 in1.5 mm 0.00 in0.0 mm 0.35 in8.9 mm
08:45 PM 61.2°F16.2°C 55.4°F13.0°C 80% 1.3 mph SSE2.1 kmh SSE 3.1 mph5.0 kmh 29.59 in1002.0 mb 0.06 in1.5 mm 0.00 in0.0 mm 0.35 in8.9 mm
08:50 PM 61.2°F16.2°C 55.4°F13.0°C 80% 0.8 mph SSE1.3 kmh SSE 2.2 mph3.5 kmh 29.59 in1002.0 mb 0.06 in1.5 mm 0.00 in0.0 mm 0.35 in8.9 mm
08:55 PM 61.0°F16.1°C 55.4°F13.0°C 80% 0.3 mph SSE0.5 kmh SSE 2.2 mph3.5 kmh 29.56 in1001.0 mb 0.06 in1.5 mm 0.00 in0.0 mm 0.35 in8.9 mm
09:00 PM 61.0°F16.1°C 55.4°F13.0°C 80% Calm Calm -- 29.56 in1001.0 mb 0.00 in0.0 mm 0.00 in0.0 mm 0.35 in8.9 mm
09:05 PM 60.8°F16.0°C 55.4°F13.0°C 80% 0.8 mph SSW1.3 kmh SSW 2.9 mph4.7 kmh 29.56 in1001.0 mb 0.00 in0.0 mm 0.00 in0.0 mm 0.35 in8.9 mm
09:10 PM 60.6°F15.9°C 55.4°F13.0°C 80% 0.9 mph S1.4 kmh S 2.9 mph4.7 kmh 29.59 in1002.0 mb 0.00 in0.0 mm 0.00 in0.0 mm 0.35 in8.9 mm
09:15 PM 60.6°F15.9°C 55.4°F13.0°C 80% 1.2 mph SW1.9 kmh SW 3.4 mph5.5 kmh 29.59 in1002.0 mb 0.00 in0.0 mm 0.00 in0.0 mm 0.35 in8.9 mm
09:20 PM 60.4°F15.8°C 55.4°F13.0°C 80% 1.4 mph SW2.3 kmh SW 3.4 mph5.5 kmh 29.59 in1002.0 mb 0.00 in0.0 mm 0.00 in0.0 mm 0.35 in8.9 mm
09:25 PM 60.4°F15.8°C 55.4°F13.0°C 80% 1.1 mph SSW1.8 kmh SSW 3.4 mph5.5 kmh 29.59 in1002.0 mb 0.00 in0.0 mm 0.00 in0.0 mm 0.35 in8.9 mm
09:30 PM 60.3°F15.7°C 55.4°F13.0°C 80% 1.4 mph SSW2.3 kmh SSW 3.4 mph5.5 kmh 29.59 in1002.0 mb 0.00 in0.0 mm 0.00 in0.0 mm 0.35 in8.9 mm
09:35 PM 60.3°F15.7°C 55.4°F13.0°C 80% 1.8 mph SW2.9 kmh SW 2.9 mph4.7 kmh 29.59 in1002.0 mb 0.00 in0.0 mm 0.00 in0.0 mm 0.35 in8.9 mm
09:40 PM 60.1°F15.6°C 55.4°F13.0°C 80% 0.9 mph SW1.4 kmh SW 2.9 mph4.7 kmh 29.59 in1002.0 mb 0.00 in0.0 mm 0.00 in0.0 mm 0.35 in8.9 mm
09:45 PM 60.1°F15.6°C 55.4°F13.0°C 80% 0.5 mph S0.8 kmh S 2.7 mph4.3 kmh 29.59 in1002.0 mb 0.00 in0.0 mm 0.00 in0.0 mm 0.35 in8.9 mm
09:50 PM 60.1°F15.6°C 55.4°F13.0°C 80% 0.2 mph S0.3 kmh S 2.2 mph3.5 kmh 29.59 in1002.0 mb 0.00 in0.0 mm 0.00 in0.0 mm 0.35 in8.9 mm
09:55 PM 60.1°F15.6°C 55.4°F13.0°C 80% 0.6 mph SSW1.0 kmh SSW 2.9 mph4.7 kmh 29.59 in1002.0 mb 0.00 in0.0 mm 0.00 in0.0 mm 0.35 in8.9 mm
10:00 PM 60.1°F15.6°C 55.4°F13.0°C 81% 1.1 mph S1.8 kmh S 3.6 mph5.8 kmh 29.59 in1002.0 mb 0.00 in0.0 mm 0.00 in0.0 mm 0.35 in8.9 mm
10:05 PM 59.9°F15.5°C 55.4°F13.0°C 80% 1.0 mph SSE1.6 kmh SSE 3.6 mph5.8 kmh 29.59 in1002.0 mb 0.00 in0.0 mm 0.00 in0.0 mm 0.35 in8.9 mm
10:10 PM 59.9°F15.5°C 55.4°F13.0°C 81% 0.4 mph S0.6 kmh S 2.2 mph3.5 kmh 29.59 in1002.0 mb 0.00 in0.0 mm 0.00 in0.0 mm 0.35 in8.9 mm
10:15 PM 59.9°F15.5°C 55.4°F13.0°C 81% 0.3 mph SSE0.5 kmh SSE 2.0 mph3.2 kmh 29.59 in1002.0 mb 0.00 in0.0 mm 0.00 in0.0 mm 0.35 in8.9 mm
10:20 PM 59.7°F15.4°C 53.6°F12.0°C 81% Calm Calm -- 29.59 in1002.0 mb 0.00 in0.0 mm 0.00 in0.0 mm 0.35 in8.9 mm
10:25 PM 59.7°F15.4°C 53.6°F12.0°C 81% Calm Calm -- 29.59 in1002.0 mb 0.00 in0.0 mm 0.00 in0.0 mm 0.35 in8.9 mm
10:30 PM 59.7°F15.4°C 53.6°F12.0°C 81% 0.1 mph SSE0.2 kmh SSE 0.9 mph1.4 kmh 29.59 in1002.0 mb 0.00 in0.0 mm 0.00 in0.0 mm 0.35 in8.9 mm
10:35 PM 59.7°F15.4°C 53.6°F12.0°C 81% 0.1 mph SSE0.2 kmh SSE 0.9 mph1.4 kmh 29.59 in1002.0 mb 0.00 in0.0 mm 0.00 in0.0 mm 0.35 in8.9 mm
10:40 PM 59.7°F15.4°C 53.6°F12.0°C 81% Calm Calm -- 29.59 in1002.0 mb 0.00 in0.0 mm 0.00 in0.0 mm 0.35 in8.9 mm
10:45 PM 59.7°F15.4°C 53.6°F12.0°C 81% 0.3 mph SSE0.5 kmh SSE 2.5 mph4.0 kmh 29.59 in1002.0 mb 0.00 in0.0 mm 0.00 in0.0 mm 0.35 in8.9 mm
10:50 PM 59.7°F15.4°C 53.6°F12.0°C 81% 0.3 mph SSE0.5 kmh SSE 2.5 mph4.0 kmh 29.59 in1002.0 mb 0.00 in0.0 mm 0.00 in0.0 mm 0.35 in8.9 mm
10:55 PM 59.5°F15.3°C 53.6°F12.0°C 81% Calm Calm -- 29.59 in1002.0 mb 0.00 in0.0 mm 0.00 in0.0 mm 0.35 in8.9 mm
11:00 PM 59.5°F15.3°C 53.6°F12.0°C 81% 0.1 mph SSE0.2 kmh SSE 1.1 mph1.8 kmh 29.59 in1002.0 mb 0.00 in0.0 mm 0.00 in0.0 mm 0.29 in7.4 mm
11:05 PM 59.5°F15.3°C 53.6°F12.0°C 81% 1.0 mph SSE1.6 kmh SSE 2.7 mph4.3 kmh 29.59 in1002.0 mb 0.00 in0.0 mm 0.00 in0.0 mm 0.29 in7.4 mm
11:10 PM 59.5°F15.3°C 53.6°F12.0°C 81% 1.0 mph SSE1.6 kmh SSE 2.7 mph4.3 kmh 29.59 in1002.0 mb 0.00 in0.0 mm 0.00 in0.0 mm 0.29 in7.4 mm
11:15 PM 59.5°F15.3°C 55.4°F13.0°C 82% 0.5 mph S0.8 kmh S 2.7 mph4.3 kmh 29.59 in1002.0 mb 0.00 in0.0 mm 0.00 in0.0 mm 0.29 in7.4 mm
11:20 PM 59.4°F15.2°C 55.4°F13.0°C 82% 0.3 mph S0.5 kmh S 1.1 mph1.8 kmh 29.59 in1002.0 mb 0.00 in0.0 mm 0.00 in0.0 mm 0.29 in7.4 mm
11:25 PM 59.4°F15.2°C 55.4°F13.0°C 82% 0.3 mph S0.5 kmh S 1.1 mph1.8 kmh 29.59 in1002.0 mb 0.00 in0.0 mm 0.00 in0.0 mm 0.29 in7.4 mm
11:30 PM 59.4°F15.2°C 53.6°F12.0°C 81% 0.6 mph S1.0 kmh S 1.6 mph2.6 kmh 29.59 in1002.0 mb 0.00 in0.0 mm 0.00 in0.0 mm 0.29 in7.4 mm
11:35 PM 59.4°F15.2°C 55.4°F13.0°C 82% 0.9 mph SSE1.4 kmh SSE 1.6 mph2.6 kmh 29.59 in1002.0 mb 0.00 in0.0 mm 0.00 in0.0 mm 0.29 in7.4 mm
11:40 PM 59.4°F15.2°C 55.4°F13.0°C 82% 1.5 mph SSE2.4 kmh SSE 3.1 mph5.0 kmh 29.59 in1002.0 mb 0.00 in0.0 mm 0.00 in0.0 mm 0.29 in7.4 mm
11:45 PM 59.4°F15.2°C 53.6°F12.0°C 81% 2.4 mph SSE3.9 kmh SSE 3.8 mph6.1 kmh 29.59 in1002.0 mb 0.00 in0.0 mm 0.00 in0.0 mm 0.29 in7.4 mm
11:50 PM 59.2°F15.1°C 53.6°F12.0°C 82% 2.7 mph SSE4.3 kmh SSE 5.6 mph9.0 kmh 29.59 in1002.0 mb 0.00 in0.0 mm 0.00 in0.0 mm 0.29 in7.4 mm
11:55 PM 59.2°F15.1°C 53.6°F12.0°C 81% 2.5 mph SSE4.0 kmh SSE 5.6 mph9.0 kmh 29.62 in1003.0 mb 0.00 in0.0 mm 0.00 in0.0 mm 0.29 in7.4 mm